sensor_id;sensor_type;location;lat;lon;timestamp;temperature;humidity
15450;DHT22;7826;49.784;9.934;2022-11-21T00:00:52;5.10;1.00
15450;DHT22;7826;49.784;9.934;2022-11-21T00:03:19;5.20;1.00
15450;DHT22;7826;49.784;9.934;2022-11-21T00:05:47;5.20;1.00
15450;DHT22;7826;49.784;9.934;2022-11-21T00:08:16;5.10;1.00
15450;DHT22;7826;49.784;9.934;2022-11-21T00:10:43;5.20;1.00
15450;DHT22;7826;49.784;9.934;2022-11-21T00:13:17;5.20;1.00
15450;DHT22;7826;49.784;9.934;2022-11-21T00:15:44;5.20;1.00
15450;DHT22;7826;49.784;9.934;2022-11-21T00:18:11;5.20;1.00
15450;DHT22;7826;49.784;9.934;2022-11-21T00:20:38;5.20;1.00
15450;DHT22;7826;49.784;9.934;2022-11-21T00:23:05;5.20;1.00
15450;DHT22;7826;49.784;9.934;2022-11-21T00:25:31;5.20;1.00
15450;DHT22;7826;49.784;9.934;2022-11-21T00:27:58;5.20;1.00
15450;DHT22;7826;49.784;9.934;2022-11-21T00:30:24;5.20;1.00
15450;DHT22;7826;49.784;9.934;2022-11-21T00:32:50;5.10;1.00
15450;DHT22;7826;49.784;9.934;2022-11-21T00:35:17;5.20;1.00
15450;DHT22;7826;49.784;9.934;2022-11-21T00:37:43;5.10;1.00
15450;DHT22;7826;49.784;9.934;2022-11-21T00:40:10;5.10;1.00
15450;DHT22;7826;49.784;9.934;2022-11-21T00:42:36;5.10;1.00
15450;DHT22;7826;49.784;9.934;2022-11-21T00:45:03;5.10;1.00
15450;DHT22;7826;49.784;9.934;2022-11-21T00:47:29;5.10;1.00
15450;DHT22;7826;49.784;9.934;2022-11-21T00:49:55;5.10;1.00
15450;DHT22;7826;49.784;9.934;2022-11-21T00:52:21;5.10;1.00
15450;DHT22;7826;49.784;9.934;2022-11-21T00:54:48;5.10;1.00
15450;DHT22;7826;49.784;9.934;2022-11-21T00:57:14;5.10;1.00
15450;DHT22;7826;49.784;9.934;2022-11-21T00:59:40;5.10;1.00
15450;DHT22;7826;49.784;9.934;2022-11-21T01:02:06;5.10;1.00
15450;DHT22;7826;49.784;9.934;2022-11-21T01:04:34;5.10;1.00
15450;DHT22;7826;49.784;9.934;2022-11-21T01:07:00;5.20;1.00
15450;DHT22;7826;49.784;9.934;2022-11-21T01:09:26;5.20;1.00
15450;DHT22;7826;49.784;9.934;2022-11-21T01:11:54;5.20;1.00
15450;DHT22;7826;49.784;9.934;2022-11-21T01:14:20;5.20;1.00
15450;DHT22;7826;49.784;9.934;2022-11-21T01:16:47;5.20;1.00
15450;DHT22;7826;49.784;9.934;2022-11-21T01:19:13;5.20;1.00
15450;DHT22;7826;49.784;9.934;2022-11-21T01:21:39;5.10;1.00
15450;DHT22;7826;49.784;9.934;2022-11-21T01:24:06;5.10;1.00
15450;DHT22;7826;49.784;9.934;2022-11-21T01:26:32;5.10;1.00
15450;DHT22;7826;49.784;9.934;2022-11-21T01:28:59;5.10;1.00
15450;DHT22;7826;49.784;9.934;2022-11-21T01:31:27;5.10;1.00
15450;DHT22;7826;49.784;9.934;2022-11-21T01:33:56;5.10;1.00
15450;DHT22;7826;49.784;9.934;2022-11-21T01:36:25;5.10;1.00
15450;DHT22;7826;49.784;9.934;2022-11-21T01:38:53;5.00;1.00
15450;DHT22;7826;49.784;9.934;2022-11-21T01:41:32;5.00;1.00
15450;DHT22;7826;49.784;9.934;2022-11-21T01:46:41;5.00;1.00
15450;DHT22;7826;49.784;9.934;2022-11-21T01:49:13;5.00;1.00
15450;DHT22;7826;49.784;9.934;2022-11-21T01:51:53;4.90;1.00
15450;DHT22;7826;49.784;9.934;2022-11-21T01:54:29;4.90;1.00
15450;DHT22;7826;49.784;9.934;2022-11-21T01:57:16;4.90;1.00
15450;DHT22;7826;49.784;9.934;2022-11-21T02:02:16;4.90;1.00
15450;DHT22;7826;49.784;9.934;2022-11-21T02:04:43;4.80;1.00
15450;DHT22;7826;49.784;9.934;2022-11-21T02:07:11;4.90;1.00
15450;DHT22;7826;49.784;9.934;2022-11-21T02:09:41;4.80;1.00
15450;DHT22;7826;49.784;9.934;2022-11-21T02:12:12;4.80;1.00
15450;DHT22;7826;49.784;9.934;2022-11-21T02:14:42;4.80;1.00
15450;DHT22;7826;49.784;9.934;2022-11-21T02:17:09;4.80;1.00
15450;DHT22;7826;49.784;9.934;2022-11-21T02:19:52;4.80;1.00
15450;DHT22;7826;49.784;9.934;2022-11-21T02:25:23;4.90;1.00
15450;DHT22;7826;49.784;9.934;2022-11-21T02:27:55;4.90;1.00
15450;DHT22;7826;49.784;9.934;2022-11-21T02:30:23;4.90;1.00
15450;DHT22;7826;49.784;9.934;2022-11-21T02:32:52;5.00;1.00
15450;DHT22;7826;49.784;9.934;2022-11-21T02:35:19;5.00;1.00
15450;DHT22;7826;49.784;9.934;2022-11-21T02:37:54;4.90;1.00
15450;DHT22;7826;49.784;9.934;2022-11-21T02:40:24;5.00;1.00
15450;DHT22;7826;49.784;9.934;2022-11-21T02:43:03;5.00;1.00
15450;DHT22;7826;49.784;9.934;2022-11-21T02:45:35;4.90;1.00
15450;DHT22;7826;49.784;9.934;2022-11-21T02:48:03;5.00;1.00
15450;DHT22;7826;49.784;9.934;2022-11-21T02:50:31;5.00;1.00
15450;DHT22;7826;49.784;9.934;2022-11-21T02:52:58;5.00;1.00
15450;DHT22;7826;49.784;9.934;2022-11-21T02:55:25;5.10;1.00
15450;DHT22;7826;49.784;9.934;2022-11-21T02:57:52;5.10;1.00
15450;DHT22;7826;49.784;9.934;2022-11-21T03:00:19;5.10;1.00
15450;DHT22;7826;49.784;9.934;2022-11-21T03:02:45;5.10;1.00
15450;DHT22;7826;49.784;9.934;2022-11-21T03:05:15;5.20;1.00
15450;DHT22;7826;49.784;9.934;2022-11-21T03:07:42;5.20;1.00
15450;DHT22;7826;49.784;9.934;2022-11-21T03:10:08;5.20;1.00
15450;DHT22;7826;49.784;9.934;2022-11-21T03:12:35;5.20;1.00
15450;DHT22;7826;49.784;9.934;2022-11-21T03:15:03;5.20;1.00
15450;DHT22;7826;49.784;9.934;2022-11-21T03:17:30;5.20;1.00
15450;DHT22;7826;49.784;9.934;2022-11-21T03:19:56;5.20;1.00
15450;DHT22;7826;49.784;9.934;2022-11-21T03:22:22;5.30;1.00
15450;DHT22;7826;49.784;9.934;2022-11-21T03:24:48;5.30;1.00
15450;DHT22;7826;49.784;9.934;2022-11-21T03:27:15;5.30;1.00
15450;DHT22;7826;49.784;9.934;2022-11-21T03:29:42;5.30;1.00
15450;DHT22;7826;49.784;9.934;2022-11-21T03:32:08;5.30;1.00
15450;DHT22;7826;49.784;9.934;2022-11-21T03:34:34;5.30;1.00
15450;DHT22;7826;49.784;9.934;2022-11-21T03:37:01;5.30;1.00
15450;DHT22;7826;49.784;9.934;2022-11-21T03:39:29;5.30;1.00
15450;DHT22;7826;49.784;9.934;2022-11-21T03:41:55;5.30;1.00
15450;DHT22;7826;49.784;9.934;2022-11-21T03:44:21;5.30;1.00
15450;DHT22;7826;49.784;9.934;2022-11-21T03:46:48;5.30;1.00
15450;DHT22;7826;49.784;9.934;2022-11-21T03:49:15;5.30;1.00
15450;DHT22;7826;49.784;9.934;2022-11-21T03:51:43;5.30;1.00
15450;DHT22;7826;49.784;9.934;2022-11-21T03:54:10;5.40;1.00
15450;DHT22;7826;49.784;9.934;2022-11-21T03:56:37;5.40;1.00
15450;DHT22;7826;49.784;9.934;2022-11-21T03:59:06;5.30;1.00
15450;DHT22;7826;49.784;9.934;2022-11-21T04:01:33;5.30;1.00
15450;DHT22;7826;49.784;9.934;2022-11-21T04:03:59;5.30;1.00
15450;DHT22;7826;49.784;9.934;2022-11-21T04:06:26;5.30;1.00
15450;DHT22;7826;49.784;9.934;2022-11-21T04:08:52;5.30;1.00
15450;DHT22;7826;49.784;9.934;2022-11-21T04:11:18;5.30;1.00
15450;DHT22;7826;49.784;9.934;2022-11-21T04:13:46;5.30;1.00
15450;DHT22;7826;49.784;9.934;2022-11-21T04:16:13;5.30;1.00
15450;DHT22;7826;49.784;9.934;2022-11-21T04:18:40;5.30;1.00
15450;DHT22;7826;49.784;9.934;2022-11-21T04:21:07;5.30;1.00
15450;DHT22;7826;49.784;9.934;2022-11-21T04:23:34;5.30;1.00
15450;DHT22;7826;49.784;9.934;2022-11-21T04:26:01;5.30;1.00
15450;DHT22;7826;49.784;9.934;2022-11-21T04:28:27;5.20;1.00
15450;DHT22;7826;49.784;9.934;2022-11-21T04:30:54;5.20;1.00
15450;DHT22;7826;49.784;9.934;2022-11-21T04:33:20;5.20;1.00
15450;DHT22;7826;49.784;9.934;2022-11-21T04:35:47;5.30;1.00
15450;DHT22;7826;49.784;9.934;2022-11-21T04:38:13;5.30;1.00
15450;DHT22;7826;49.784;9.934;2022-11-21T04:40:42;5.30;1.00
15450;DHT22;7826;49.784;9.934;2022-11-21T04:43:10;5.30;1.00
15450;DHT22;7826;49.784;9.934;2022-11-21T04:45:36;5.30;1.00
15450;DHT22;7826;49.784;9.934;2022-11-21T04:48:03;5.30;1.00
15450;DHT22;7826;49.784;9.934;2022-11-21T04:50:29;5.30;1.00
15450;DHT22;7826;49.784;9.934;2022-11-21T04:52:56;5.30;1.00
15450;DHT22;7826;49.784;9.934;2022-11-21T04:55:24;5.30;1.00
15450;DHT22;7826;49.784;9.934;2022-11-21T04:57:52;5.30;1.00
15450;DHT22;7826;49.784;9.934;2022-11-21T05:00:18;5.30;1.00
15450;DHT22;7826;49.784;9.934;2022-11-21T05:02:44;5.20;1.00
15450;DHT22;7826;49.784;9.934;2022-11-21T05:05:11;5.30;1.00
15450;DHT22;7826;49.784;9.934;2022-11-21T05:07:37;5.30;1.00
15450;DHT22;7826;49.784;9.934;2022-11-21T05:10:05;5.30;1.00
15450;DHT22;7826;49.784;9.934;2022-11-21T05:12:31;5.30;1.00
15450;DHT22;7826;49.784;9.934;2022-11-21T05:15:17;5.30;1.00
15450;DHT22;7826;49.784;9.934;2022-11-21T05:17:44;5.30;1.00
15450;DHT22;7826;49.784;9.934;2022-11-21T05:20:10;5.20;1.00
15450;DHT22;7826;49.784;9.934;2022-11-21T05:22:37;5.30;1.00
15450;DHT22;7826;49.784;9.934;2022-11-21T05:25:04;5.30;1.00
15450;DHT22;7826;49.784;9.934;2022-11-21T05:27:30;5.30;1.00
15450;DHT22;7826;49.784;9.934;2022-11-21T05:29:56;5.30;1.00
15450;DHT22;7826;49.784;9.934;2022-11-21T05:32:22;5.30;1.00
15450;DHT22;7826;49.784;9.934;2022-11-21T05:34:50;5.30;1.00
15450;DHT22;7826;49.784;9.934;2022-11-21T05:37:16;5.30;1.00
15450;DHT22;7826;49.784;9.934;2022-11-21T05:39:43;5.30;1.00
15450;DHT22;7826;49.784;9.934;2022-11-21T05:42:10;5.30;1.00
15450;DHT22;7826;49.784;9.934;2022-11-21T05:44:36;5.40;1.00
15450;DHT22;7826;49.784;9.934;2022-11-21T05:47:02;5.30;1.00
15450;DHT22;7826;49.784;9.934;2022-11-21T05:49:28;5.30;1.00
15450;DHT22;7826;49.784;9.934;2022-11-21T05:51:55;5.40;1.00
15450;DHT22;7826;49.784;9.934;2022-11-21T05:54:21;5.40;1.00
15450;DHT22;7826;49.784;9.934;2022-11-21T05:56:47;5.40;1.00
15450;DHT22;7826;49.784;9.934;2022-11-21T05:59:13;5.40;1.00
15450;DHT22;7826;49.784;9.934;2022-11-21T06:01:40;5.30;1.00
15450;DHT22;7826;49.784;9.934;2022-11-21T06:04:24;5.30;1.00
15450;DHT22;7826;49.784;9.934;2022-11-21T06:06:51;5.30;1.00
15450;DHT22;7826;49.784;9.934;2022-11-21T06:09:17;5.20;1.00
15450;DHT22;7826;49.784;9.934;2022-11-21T06:11:43;5.20;1.00
15450;DHT22;7826;49.784;9.934;2022-11-21T06:14:09;5.20;1.00
15450;DHT22;7826;49.784;9.934;2022-11-21T06:16:36;5.20;1.00
15450;DHT22;7826;49.784;9.934;2022-11-21T06:19:02;5.20;1.00
15450;DHT22;7826;49.784;9.934;2022-11-21T06:21:29;5.20;1.00
15450;DHT22;7826;49.784;9.934;2022-11-21T06:23:56;5.20;1.00
15450;DHT22;7826;49.784;9.934;2022-11-21T06:26:24;5.20;1.00
15450;DHT22;7826;49.784;9.934;2022-11-21T06:28:51;5.20;1.00
15450;DHT22;7826;49.784;9.934;2022-11-21T06:31:23;5.20;1.00
15450;DHT22;7826;49.784;9.934;2022-11-21T06:33:52;5.20;1.00
15450;DHT22;7826;49.784;9.934;2022-11-21T06:36:19;5.30;1.00
15450;DHT22;7826;49.784;9.934;2022-11-21T06:38:46;5.30;1.00
15450;DHT22;7826;49.784;9.934;2022-11-21T06:41:15;5.40;1.00
15450;DHT22;7826;49.784;9.934;2022-11-21T06:43:42;5.40;1.00
15450;DHT22;7826;49.784;9.934;2022-11-21T06:46:08;5.30;1.00
15450;DHT22;7826;49.784;9.934;2022-11-21T06:48:36;5.30;1.00
15450;DHT22;7826;49.784;9.934;2022-11-21T06:51:11;5.30;1.00
15450;DHT22;7826;49.784;9.934;2022-11-21T06:53:38;5.40;1.00
15450;DHT22;7826;49.784;9.934;2022-11-21T06:56:04;5.30;1.00
15450;DHT22;7826;49.784;9.934;2022-11-21T06:58:31;5.30;1.00
15450;DHT22;7826;49.784;9.934;2022-11-21T07:01:02;5.30;1.00
15450;DHT22;7826;49.784;9.934;2022-11-21T07:03:28;5.30;1.00
15450;DHT22;7826;49.784;9.934;2022-11-21T07:05:54;5.30;1.00
15450;DHT22;7826;49.784;9.934;2022-11-21T07:08:24;5.30;1.00
15450;DHT22;7826;49.784;9.934;2022-11-21T07:10:50;5.30;1.00
15450;DHT22;7826;49.784;9.934;2022-11-21T07:13:17;5.30;1.00
15450;DHT22;7826;49.784;9.934;2022-11-21T07:15:48;5.30;1.00
15450;DHT22;7826;49.784;9.934;2022-11-21T07:18:15;5.30;1.00
15450;DHT22;7826;49.784;9.934;2022-11-21T07:20:41;5.30;1.00
15450;DHT22;7826;49.784;9.934;2022-11-21T07:23:08;5.30;1.00
15450;DHT22;7826;49.784;9.934;2022-11-21T07:25:35;5.30;1.00
15450;DHT22;7826;49.784;9.934;2022-11-21T07:28:02;5.30;1.00
15450;DHT22;7826;49.784;9.934;2022-11-21T07:30:28;5.40;1.00
15450;DHT22;7826;49.784;9.934;2022-11-21T07:32:56;5.40;1.00
15450;DHT22;7826;49.784;9.934;2022-11-21T07:35:23;5.40;1.00
15450;DHT22;7826;49.784;9.934;2022-11-21T07:37:50;5.40;1.00
15450;DHT22;7826;49.784;9.934;2022-11-21T07:40:16;5.50;1.00
15450;DHT22;7826;49.784;9.934;2022-11-21T07:42:43;5.50;1.00
15450;DHT22;7826;49.784;9.934;2022-11-21T07:45:10;5.60;1.00
15450;DHT22;7826;49.784;9.934;2022-11-21T07:47:36;5.60;1.00
15450;DHT22;7826;49.784;9.934;2022-11-21T07:50:04;5.70;1.00
15450;DHT22;7826;49.784;9.934;2022-11-21T07:52:30;5.60;1.00
15450;DHT22;7826;49.784;9.934;2022-11-21T07:54:57;5.70;1.00
15450;DHT22;7826;49.784;9.934;2022-11-21T07:57:23;5.70;1.00
15450;DHT22;7826;49.784;9.934;2022-11-21T07:59:50;6.00;1.00
15450;DHT22;7826;49.784;9.934;2022-11-21T08:02:34;5.80;1.00
15450;DHT22;7826;49.784;9.934;2022-11-21T08:05:01;6.00;1.00
15450;DHT22;7826;49.784;9.934;2022-11-21T08:07:27;6.20;1.00
15450;DHT22;7826;49.784;9.934;2022-11-21T08:09:53;6.20;1.00
15450;DHT22;7826;49.784;9.934;2022-11-21T08:12:20;6.20;1.00
15450;DHT22;7826;49.784;9.934;2022-11-21T08:14:46;6.10;1.00
15450;DHT22;7826;49.784;9.934;2022-11-21T08:17:12;6.10;1.00
15450;DHT22;7826;49.784;9.934;2022-11-21T08:19:39;6.00;1.00
15450;DHT22;7826;49.784;9.934;2022-11-21T08:22:05;6.00;1.00
15450;DHT22;7826;49.784;9.934;2022-11-21T08:24:31;6.10;1.00
15450;DHT22;7826;49.784;9.934;2022-11-21T08:26:58;6.00;1.00
15450;DHT22;7826;49.784;9.934;2022-11-21T08:29:25;6.10;1.00
15450;DHT22;7826;49.784;9.934;2022-11-21T08:31:52;6.10;1.00
15450;DHT22;7826;49.784;9.934;2022-11-21T08:34:18;6.10;1.00
15450;DHT22;7826;49.784;9.934;2022-11-21T08:36:44;6.10;1.00
15450;DHT22;7826;49.784;9.934;2022-11-21T08:39:11;6.00;1.00
15450;DHT22;7826;49.784;9.934;2022-11-21T08:41:37;6.00;1.00
15450;DHT22;7826;49.784;9.934;2022-11-21T08:44:22;6.00;1.00
15450;DHT22;7826;49.784;9.934;2022-11-21T08:46:49;6.00;1.00
15450;DHT22;7826;49.784;9.934;2022-11-21T08:49:15;6.00;1.00
15450;DHT22;7826;49.784;9.934;2022-11-21T08:51:41;6.10;1.00
15450;DHT22;7826;49.784;9.934;2022-11-21T08:54:08;6.10;1.00
15450;DHT22;7826;49.784;9.934;2022-11-21T08:56:34;6.20;1.00
15450;DHT22;7826;49.784;9.934;2022-11-21T08:59:01;6.20;1.00
15450;DHT22;7826;49.784;9.934;2022-11-21T09:01:27;6.20;1.00
15450;DHT22;7826;49.784;9.934;2022-11-21T09:03:53;6.20;1.00
15450;DHT22;7826;49.784;9.934;2022-11-21T09:06:20;6.20;1.00
15450;DHT22;7826;49.784;9.934;2022-11-21T09:08:46;6.30;1.00
15450;DHT22;7826;49.784;9.934;2022-11-21T09:11:12;6.30;1.00
15450;DHT22;7826;49.784;9.934;2022-11-21T09:13:38;6.30;1.00
15450;DHT22;7826;49.784;9.934;2022-11-21T09:16:05;6.40;1.00
15450;DHT22;7826;49.784;9.934;2022-11-21T09:18:52;6.40;1.00
15450;DHT22;7826;49.784;9.934;2022-11-21T09:21:19;6.50;1.00
15450;DHT22;7826;49.784;9.934;2022-11-21T09:23:46;6.60;1.00
15450;DHT22;7826;49.784;9.934;2022-11-21T09:26:13;6.60;1.00
15450;DHT22;7826;49.784;9.934;2022-11-21T09:28:39;6.70;1.00
15450;DHT22;7826;49.784;9.934;2022-11-21T09:31:06;6.70;1.00
15450;DHT22;7826;49.784;9.934;2022-11-21T09:33:33;6.70;1.00
15450;DHT22;7826;49.784;9.934;2022-11-21T09:36:00;6.70;1.00
15450;DHT22;7826;49.784;9.934;2022-11-21T09:38:26;6.80;1.00
15450;DHT22;7826;49.784;9.934;2022-11-21T09:41:12;6.70;1.00
15450;DHT22;7826;49.784;9.934;2022-11-21T09:44:10;6.70;1.00
15450;DHT22;7826;49.784;9.934;2022-11-21T09:46:46;6.90;1.00
15450;DHT22;7826;49.784;9.934;2022-11-21T09:49:13;7.10;1.00
15450;DHT22;7826;49.784;9.934;2022-11-21T09:51:43;7.30;1.00
15450;DHT22;7826;49.784;9.934;2022-11-21T09:54:17;7.60;1.00
15450;DHT22;7826;49.784;9.934;2022-11-21T09:56:46;7.70;1.00
15450;DHT22;7826;49.784;9.934;2022-11-21T10:01:42;7.90;1.00
15450;DHT22;7826;49.784;9.934;2022-11-21T10:04:08;8.00;1.00
15450;DHT22;7826;49.784;9.934;2022-11-21T10:06:53;7.90;1.00
15450;DHT22;7826;49.784;9.934;2022-11-21T10:12:03;7.70;1.00
15450;DHT22;7826;49.784;9.934;2022-11-21T10:15:23;7.60;1.00
15450;DHT22;7826;49.784;9.934;2022-11-21T10:18:09;7.30;1.00
15450;DHT22;7826;49.784;9.934;2022-11-21T10:21:08;7.20;1.00
15450;DHT22;7826;49.784;9.934;2022-11-21T10:31:40;6.70;1.00
15450;DHT22;7826;49.784;9.934;2022-11-21T10:34:14;6.70;1.00
15450;DHT22;7826;49.784;9.934;2022-11-21T10:36:43;6.70;1.00
15450;DHT22;7826;49.784;9.934;2022-11-21T10:39:17;6.70;1.00
15450;DHT22;7826;49.784;9.934;2022-11-21T10:41:50;6.70;1.00
15450;DHT22;7826;49.784;9.934;2022-11-21T10:44:29;6.70;1.00
15450;DHT22;7826;49.784;9.934;2022-11-21T10:47:22;6.70;1.00
15450;DHT22;7826;49.784;9.934;2022-11-21T10:52:58;6.90;1.00
15450;DHT22;7826;49.784;9.934;2022-11-21T10:55:26;7.00;1.00
15450;DHT22;7826;49.784;9.934;2022-11-21T10:57:53;7.20;1.00
15450;DHT22;7826;49.784;9.934;2022-11-21T11:00:26;7.30;1.00
15450;DHT22;7826;49.784;9.934;2022-11-21T11:05:24;7.70;1.00
15450;DHT22;7826;49.784;9.934;2022-11-21T11:08:08;7.70;1.00
15450;DHT22;7826;49.784;9.934;2022-11-21T11:11:02;7.70;1.00
15450;DHT22;7826;49.784;9.934;2022-11-21T11:13:30;7.60;1.00
15450;DHT22;7826;49.784;9.934;2022-11-21T11:21:22;7.10;1.00
15450;DHT22;7826;49.784;9.934;2022-11-21T11:23:51;7.00;1.00
15450;DHT22;7826;49.784;9.934;2022-11-21T11:26:22;6.70;1.00
15450;DHT22;7826;49.784;9.934;2022-11-21T11:28:49;6.70;1.00
15450;DHT22;7826;49.784;9.934;2022-11-21T11:31:16;6.60;1.00
15450;DHT22;7826;49.784;9.934;2022-11-21T11:33:51;6.50;1.00
15450;DHT22;7826;49.784;9.934;2022-11-21T11:38:59;6.50;1.00
15450;DHT22;7826;49.784;9.934;2022-11-21T11:47:23;6.60;1.00
15450;DHT22;7826;49.784;9.934;2022-11-21T11:50:10;6.60;1.00
15450;DHT22;7826;49.784;9.934;2022-11-21T11:52:59;6.80;1.00
15450;DHT22;7826;49.784;9.934;2022-11-21T11:55:40;6.90;1.00
15450;DHT22;7826;49.784;9.934;2022-11-21T11:58:38;6.90;1.00
15450;DHT22;7826;49.784;9.934;2022-11-21T12:01:15;7.00;1.00
15450;DHT22;7826;49.784;9.934;2022-11-21T12:06:20;7.00;1.00
15450;DHT22;7826;49.784;9.934;2022-11-21T12:09:06;7.10;1.00
15450;DHT22;7826;49.784;9.934;2022-11-21T12:21:22;7.30;1.00
15450;DHT22;7826;49.784;9.934;2022-11-21T12:23:18;7.40;1.00
15450;DHT22;7826;49.784;9.934;2022-11-21T12:26:06;7.50;1.00
15450;DHT22;7826;49.784;9.934;2022-11-21T12:31:51;7.20;1.00
15450;DHT22;7826;49.784;9.934;2022-11-21T12:36:59;7.00;1.90
15450;DHT22;7826;49.784;9.934;2022-11-21T12:45:31;6.80;4.80
15450;DHT22;7826;49.784;9.934;2022-11-21T12:51:21;6.70;6.00
15450;DHT22;7826;49.784;9.934;2022-11-21T12:54:31;6.70;6.40
15450;DHT22;7826;49.784;9.934;2022-11-21T12:57:17;6.70;6.50
15450;DHT22;7826;49.784;9.934;2022-11-21T13:00:10;6.80;6.40
15450;DHT22;7826;49.784;9.934;2022-11-21T13:05:40;6.90;5.30
15450;DHT22;7826;49.784;9.934;2022-11-21T13:08:18;7.00;6.00
15450;DHT22;7826;49.784;9.934;2022-11-21T13:10:51;7.00;6.00
15450;DHT22;7826;49.784;9.934;2022-11-21T13:13:43;7.00;6.90
15450;DHT22;7826;49.784;9.934;2022-11-21T13:16:18;6.90;8.20
15450;DHT22;7826;49.784;9.934;2022-11-21T13:19:26;6.80;9.10
15450;DHT22;7826;49.784;9.934;2022-11-21T13:21:56;6.80;11.20
15450;DHT22;7826;49.784;9.934;2022-11-21T13:27:37;6.70;13.30
15450;DHT22;7826;49.784;9.934;2022-11-21T13:32:44;6.90;15.20
15450;DHT22;7826;49.784;9.934;2022-11-21T13:38:05;7.10;14.90
15450;DHT22;7826;49.784;9.934;2022-11-21T13:40:38;6.90;15.10
15450;DHT22;7826;49.784;9.934;2022-11-21T13:43:26;6.70;15.70
15450;DHT22;7826;49.784;9.934;2022-11-21T13:45:52;6.60;16.80
15450;DHT22;7826;49.784;9.934;2022-11-21T13:56:34;6.50;18.80
15450;DHT22;7826;49.784;9.934;2022-11-21T14:02:39;6.60;18.70
15450;DHT22;7826;49.784;9.934;2022-11-21T14:10:46;6.30;18.40
15450;DHT22;7826;49.784;9.934;2022-11-21T14:13:31;6.30;18.20
15450;DHT22;7826;49.784;9.934;2022-11-21T14:16:02;6.30;17.70
15450;DHT22;7826;49.784;9.934;2022-11-21T14:18:32;6.30;18.00
15450;DHT22;7826;49.784;9.934;2022-11-21T14:21:01;6.30;18.20
15450;DHT22;7826;49.784;9.934;2022-11-21T14:23:31;6.30;17.80
15450;DHT22;7826;49.784;9.934;2022-11-21T14:26:11;6.10;18.10
15450;DHT22;7826;49.784;9.934;2022-11-21T14:28:39;6.20;18.30
15450;DHT22;7826;49.784;9.934;2022-11-21T14:31:08;6.10;18.40
15450;DHT22;7826;49.784;9.934;2022-11-21T14:33:36;6.10;18.60
15450;DHT22;7826;49.784;9.934;2022-11-21T14:36:22;6.00;18.30
15450;DHT22;7826;49.784;9.934;2022-11-21T14:38:50;5.90;16.40
15450;DHT22;7826;49.784;9.934;2022-11-21T14:52:06;5.70;13.40
15450;DHT22;7826;49.784;9.934;2022-11-21T14:54:53;5.60;13.10
15450;DHT22;7826;49.784;9.934;2022-11-21T14:57:29;5.60;13.30
15450;DHT22;7826;49.784;9.934;2022-11-21T14:59:56;5.60;14.10
15450;DHT22;7826;49.784;9.934;2022-11-21T15:02:25;5.60;14.60
15450;DHT22;7826;49.784;9.934;2022-11-21T15:04:53;5.60;14.50
15450;DHT22;7826;49.784;9.934;2022-11-21T15:07:28;5.60;13.60
15450;DHT22;7826;49.784;9.934;2022-11-21T15:09:56;5.50;12.70
15450;DHT22;7826;49.784;9.934;2022-11-21T15:12:28;5.50;11.60
15450;DHT22;7826;49.784;9.934;2022-11-21T15:17:46;5.40;8.60
15450;DHT22;7826;49.784;9.934;2022-11-21T15:22:40;5.30;5.60
15450;DHT22;7826;49.784;9.934;2022-11-21T15:27:35;5.20;3.40
15450;DHT22;7826;49.784;9.934;2022-11-21T15:36:09;5.10;1.00
15450;DHT22;7826;49.784;9.934;2022-11-21T15:38:45;5.00;1.00
15450;DHT22;7826;49.784;9.934;2022-11-21T15:43:45;4.80;1.00
15450;DHT22;7826;49.784;9.934;2022-11-21T15:46:22;4.80;1.00
15450;DHT22;7826;49.784;9.934;2022-11-21T15:51:20;4.60;1.00
15450;DHT22;7826;49.784;9.934;2022-11-21T15:53:46;4.60;1.00
15450;DHT22;7826;49.784;9.934;2022-11-21T15:56:14;4.60;1.00
15450;DHT22;7826;49.784;9.934;2022-11-21T15:58:42;4.60;1.00
15450;DHT22;7826;49.784;9.934;2022-11-21T16:01:22;4.60;1.00
15450;DHT22;7826;49.784;9.934;2022-11-21T16:03:56;4.50;1.00
15450;DHT22;7826;49.784;9.934;2022-11-21T16:06:23;4.40;1.00
15450;DHT22;7826;49.784;9.934;2022-11-21T16:08:50;4.40;1.00
15450;DHT22;7826;49.784;9.934;2022-11-21T16:13:54;4.30;1.00
15450;DHT22;7826;49.784;9.934;2022-11-21T16:16:22;4.20;1.00
15450;DHT22;7826;49.784;9.934;2022-11-21T16:18:49;4.20;1.00
15450;DHT22;7826;49.784;9.934;2022-11-21T16:21:15;4.20;1.00
15450;DHT22;7826;49.784;9.934;2022-11-21T16:23:42;4.20;1.00
15450;DHT22;7826;49.784;9.934;2022-11-21T16:26:09;4.10;1.00
15450;DHT22;7826;49.784;9.934;2022-11-21T16:28:36;4.10;1.00
15450;DHT22;7826;49.784;9.934;2022-11-21T16:31:03;4.00;1.00
15450;DHT22;7826;49.784;9.934;2022-11-21T16:33:31;4.00;1.00
15450;DHT22;7826;49.784;9.934;2022-11-21T16:35:58;4.00;1.00
15450;DHT22;7826;49.784;9.934;2022-11-21T16:38:28;4.00;1.00
15450;DHT22;7826;49.784;9.934;2022-11-21T16:40:59;3.90;1.00
15450;DHT22;7826;49.784;9.934;2022-11-21T16:43:27;3.90;1.00
15450;DHT22;7826;49.784;9.934;2022-11-21T16:45:54;4.00;1.00
15450;DHT22;7826;49.784;9.934;2022-11-21T16:48:22;3.90;1.00
15450;DHT22;7826;49.784;9.934;2022-11-21T16:50:48;3.80;1.00
15450;DHT22;7826;49.784;9.934;2022-11-21T16:53:15;3.70;1.00
15450;DHT22;7826;49.784;9.934;2022-11-21T16:55:42;3.70;1.00
15450;DHT22;7826;49.784;9.934;2022-11-21T16:58:08;3.60;1.00
15450;DHT22;7826;49.784;9.934;2022-11-21T17:00:34;3.50;1.00
15450;DHT22;7826;49.784;9.934;2022-11-21T17:03:01;3.50;1.00
15450;DHT22;7826;49.784;9.934;2022-11-21T17:05:27;3.50;1.00
15450;DHT22;7826;49.784;9.934;2022-11-21T17:07:53;3.50;1.00
15450;DHT22;7826;49.784;9.934;2022-11-21T17:10:19;3.40;1.00
15450;DHT22;7826;49.784;9.934;2022-11-21T17:12:46;3.40;1.00
15450;DHT22;7826;49.784;9.934;2022-11-21T17:15:13;3.40;1.00
15450;DHT22;7826;49.784;9.934;2022-11-21T17:17:40;3.40;1.00
15450;DHT22;7826;49.784;9.934;2022-11-21T17:20:07;3.30;1.00
15450;DHT22;7826;49.784;9.934;2022-11-21T17:22:34;3.30;1.00
15450;DHT22;7826;49.784;9.934;2022-11-21T17:25:01;3.30;1.00
15450;DHT22;7826;49.784;9.934;2022-11-21T17:27:27;3.20;1.00
15450;DHT22;7826;49.784;9.934;2022-11-21T17:29:53;3.20;1.00
15450;DHT22;7826;49.784;9.934;2022-11-21T17:32:19;3.20;1.00
15450;DHT22;7826;49.784;9.934;2022-11-21T17:34:46;3.20;1.00
15450;DHT22;7826;49.784;9.934;2022-11-21T17:37:13;3.20;1.00
15450;DHT22;7826;49.784;9.934;2022-11-21T17:39:40;3.20;1.00
15450;DHT22;7826;49.784;9.934;2022-11-21T17:42:06;3.20;1.00
15450;DHT22;7826;49.784;9.934;2022-11-21T17:44:32;3.10;1.00
15450;DHT22;7826;49.784;9.934;2022-11-21T17:46:58;3.10;1.00
15450;DHT22;7826;49.784;9.934;2022-11-21T17:49:27;3.00;1.00
15450;DHT22;7826;49.784;9.934;2022-11-21T17:51:55;3.10;1.00
15450;DHT22;7826;49.784;9.934;2022-11-21T17:54:21;3.10;1.00
15450;DHT22;7826;49.784;9.934;2022-11-21T17:56:47;3.10;1.00
15450;DHT22;7826;49.784;9.934;2022-11-21T17:59:13;3.10;1.00
15450;DHT22;7826;49.784;9.934;2022-11-21T18:01:40;3.00;1.00
15450;DHT22;7826;49.784;9.934;2022-11-21T18:04:06;3.00;1.00
15450;DHT22;7826;49.784;9.934;2022-11-21T18:06:37;3.00;1.00
15450;DHT22;7826;49.784;9.934;2022-11-21T18:09:08;3.00;1.00
15450;DHT22;7826;49.784;9.934;2022-11-21T18:11:36;3.00;1.00
15450;DHT22;7826;49.784;9.934;2022-11-21T18:14:03;3.00;1.00
15450;DHT22;7826;49.784;9.934;2022-11-21T18:16:31;3.00;1.00
15450;DHT22;7826;49.784;9.934;2022-11-21T18:18:58;3.00;1.00
15450;DHT22;7826;49.784;9.934;2022-11-21T18:21:29;3.00;1.00
15450;DHT22;7826;49.784;9.934;2022-11-21T18:23:57;2.90;1.00
15450;DHT22;7826;49.784;9.934;2022-11-21T18:26:30;2.90;1.00
15450;DHT22;7826;49.784;9.934;2022-11-21T18:28:58;2.90;1.00
15450;DHT22;7826;49.784;9.934;2022-11-21T18:31:27;2.90;1.00
15450;DHT22;7826;49.784;9.934;2022-11-21T18:33:55;2.90;1.00
15450;DHT22;7826;49.784;9.934;2022-11-21T18:36:23;2.90;1.00
15450;DHT22;7826;49.784;9.934;2022-11-21T18:38:50;3.00;1.00
15450;DHT22;7826;49.784;9.934;2022-11-21T18:41:24;3.00;1.00